KVOK/VOK METAR and TAF weather

Enter ICAO airport designator
Station Type Date Time Source
KVOK METAR 2020/09/22 20:56 UTC NOAA

KVOK 222056Z AUTO 00000KT 10SM FEW040 FEW150 26/18 A3006 RMK AO2 SLP179 57016


Station Type Date Time Source
KVOK Decoded METAR 2020/09/22 20:56 UTC NOAA

Volk / Camp Douglas, WI, United States (KVOK) 43-56N 090-16W
Sep 22, 2020 - 04:56 PM EDT / 2020.09.22 2056 UTC
Wind: Calm:0
Visibility: 10 mile(s):0
Sky conditions: mostly clear
Temperature: 78 F (26 C)
Dew Point: 64 F (18 C)
Relative Humidity: 61%
Pressure (altimeter): 30.06 in. Hg (1017 hPa)
Pressure tendency: 0.05 inches (1.6 hPa) lower than three hours ago
ob: KVOK 222056Z AUTO 00000KT 10SM FEW040 FEW150 26/18 A3006 RMK AO2 SLP179 57016
cycle: 21

Station Type Date Time Source
KVOK TAF 2020/09/22 17:06 UTC NOAA

TAF KVOK 221700Z 2217/2323 22006KT 9999 FEW050 QNH2993INS TX26/2221Z TN12/2312Z LAST NO
AMDS AFT 2221 NEXT 2309

Example: see airport list